PNPRA weather

Aviosuperficie Pravisdomini
Pravisdomini (PN), Friuli-Venezia Giulia, Italy

Public forecast

Using degrees Celsius for public forecast. Weather courtesy of forecast.io.

Closest aviation weather report (METAR) to Aviosuperficie Pravisdomini

Closest report is Aviano Air Base, 13.0 nm (24.1 km) NNW. Retrieved 2019/10/23 18:55 UTC (17 minutes ago):

LIPA 231855Z 02005KT CAVOK 17/16 Q1019 RMK SKC VIS MIN 9999 WIND THR05 /////KT WIND THR23 /////KT A3011 BLU

Closest aviation forecast (TAF) to Aviosuperficie Pravisdomini

Forecast is more than 12 hours old.

Closest forecast is Aviano Air Base, 13.0 nm (24.1 km) NNW. Retrieved 2015/11/03 12:24 UTC (4 years ago):

TAF TAF LIPA 031100Z 0312/0324 VRB03KT CAVOK